sensor_id;sensor_type;location;lat;lon;timestamp;temperature;humidity
15355;DHT22;7777;52.254;9.618;2023-04-06T00:01:49;1.30;99.10
15355;DHT22;7777;52.254;9.618;2023-04-06T00:04:15;1.30;99.30
15355;DHT22;7777;52.254;9.618;2023-04-06T00:06:41;1.30;99.20
15355;DHT22;7777;52.254;9.618;2023-04-06T00:09:07;1.30;99.00
15355;DHT22;7777;52.254;9.618;2023-04-06T00:11:33;1.30;99.00
15355;DHT22;7777;52.254;9.618;2023-04-06T00:13:59;1.30;99.30
15355;DHT22;7777;52.254;9.618;2023-04-06T00:16:25;1.30;99.20
15355;DHT22;7777;52.254;9.618;2023-04-06T00:18:51;1.30;99.30
15355;DHT22;7777;52.254;9.618;2023-04-06T00:21:17;1.30;99.10
15355;DHT22;7777;52.254;9.618;2023-04-06T00:23:42;1.30;99.10
15355;DHT22;7777;52.254;9.618;2023-04-06T00:26:08;1.30;98.90
15355;DHT22;7777;52.254;9.618;2023-04-06T00:28:36;1.40;99.00
15355;DHT22;7777;52.254;9.618;2023-04-06T00:31:02;1.40;98.80
15355;DHT22;7777;52.254;9.618;2023-04-06T00:33:28;1.40;98.60
15355;DHT22;7777;52.254;9.618;2023-04-06T00:35:54;1.40;98.60
15355;DHT22;7777;52.254;9.618;2023-04-06T00:38:19;1.40;98.30
15355;DHT22;7777;52.254;9.618;2023-04-06T00:40:46;1.40;98.80
15355;DHT22;7777;52.254;9.618;2023-04-06T00:43:12;1.40;98.90
15355;DHT22;7777;52.254;9.618;2023-04-06T00:45:38;1.40;98.70
15355;DHT22;7777;52.254;9.618;2023-04-06T00:48:05;1.50;98.80
15355;DHT22;7777;52.254;9.618;2023-04-06T00:50:32;1.40;99.10
15355;DHT22;7777;52.254;9.618;2023-04-06T00:53:01;1.40;99.20
15355;DHT22;7777;52.254;9.618;2023-04-06T00:55:28;1.40;99.40
15355;DHT22;7777;52.254;9.618;2023-04-06T00:57:54;1.30;99.50
15355;DHT22;7777;52.254;9.618;2023-04-06T01:00:23;1.30;99.40
15355;DHT22;7777;52.254;9.618;2023-04-06T01:02:49;1.30;99.30
15355;DHT22;7777;52.254;9.618;2023-04-06T01:05:15;1.30;99.20
15355;DHT22;7777;52.254;9.618;2023-04-06T01:07:41;1.30;99.50
15355;DHT22;7777;52.254;9.618;2023-04-06T01:10:07;1.40;99.30
15355;DHT22;7777;52.254;9.618;2023-04-06T01:12:33;1.30;99.40
15355;DHT22;7777;52.254;9.618;2023-04-06T01:14:59;1.30;99.60
15355;DHT22;7777;52.254;9.618;2023-04-06T01:17:25;1.30;99.80
15355;DHT22;7777;52.254;9.618;2023-04-06T01:19:51;1.20;99.90
15355;DHT22;7777;52.254;9.618;2023-04-06T01:22:19;1.20;99.80
15355;DHT22;7777;52.254;9.618;2023-04-06T01:24:45;1.20;99.90
15355;DHT22;7777;52.254;9.618;2023-04-06T01:27:11;1.10;99.90
15355;DHT22;7777;52.254;9.618;2023-04-06T01:29:37;1.10;99.70
15355;DHT22;7777;52.254;9.618;2023-04-06T01:32:07;1.20;99.60
15355;DHT22;7777;52.254;9.618;2023-04-06T01:34:32;1.20;99.50
15355;DHT22;7777;52.254;9.618;2023-04-06T01:36:58;1.20;99.20
15355;DHT22;7777;52.254;9.618;2023-04-06T01:39:24;1.20;99.60
15355;DHT22;7777;52.254;9.618;2023-04-06T01:41:50;1.20;99.80
15355;DHT22;7777;52.254;9.618;2023-04-06T01:44:17;1.20;99.40
15355;DHT22;7777;52.254;9.618;2023-04-06T01:46:43;1.20;99.90
15355;DHT22;7777;52.254;9.618;2023-04-06T01:49:09;1.10;99.70
15355;DHT22;7777;52.254;9.618;2023-04-06T01:51:35;1.10;99.70
15355;DHT22;7777;52.254;9.618;2023-04-06T01:54:01;1.20;99.60
15355;DHT22;7777;52.254;9.618;2023-04-06T01:56:26;1.20;99.60
15355;DHT22;7777;52.254;9.618;2023-04-06T01:58:52;1.20;99.30
15355;DHT22;7777;52.254;9.618;2023-04-06T02:01:18;1.20;99.30
15355;DHT22;7777;52.254;9.618;2023-04-06T02:03:43;1.20;99.40
15355;DHT22;7777;52.254;9.618;2023-04-06T02:06:09;1.20;98.90
15355;DHT22;7777;52.254;9.618;2023-04-06T02:08:35;1.20;99.40
15355;DHT22;7777;52.254;9.618;2023-04-06T02:11:01;1.20;99.70
15355;DHT22;7777;52.254;9.618;2023-04-06T02:13:27;1.20;99.70
15355;DHT22;7777;52.254;9.618;2023-04-06T02:15:52;1.20;99.80
15355;DHT22;7777;52.254;9.618;2023-04-06T02:18:18;1.20;99.50
15355;DHT22;7777;52.254;9.618;2023-04-06T02:20:44;1.20;99.60
15355;DHT22;7777;52.254;9.618;2023-04-06T02:23:10;1.20;99.90
15355;DHT22;7777;52.254;9.618;2023-04-06T02:25:36;1.10;99.90
15355;DHT22;7777;52.254;9.618;2023-04-06T02:28:02;1.20;99.50
15355;DHT22;7777;52.254;9.618;2023-04-06T02:30:44;1.10;99.90
15355;DHT22;7777;52.254;9.618;2023-04-06T02:33:10;1.20;99.30
15355;DHT22;7777;52.254;9.618;2023-04-06T02:35:35;1.20;99.10
15355;DHT22;7777;52.254;9.618;2023-04-06T02:38:01;1.20;99.60
15355;DHT22;7777;52.254;9.618;2023-04-06T02:40:27;1.20;99.50
15355;DHT22;7777;52.254;9.618;2023-04-06T02:42:52;1.20;99.90
15355;DHT22;7777;52.254;9.618;2023-04-06T02:45:18;1.10;99.90
15355;DHT22;7777;52.254;9.618;2023-04-06T02:47:44;1.10;99.40
15355;DHT22;7777;52.254;9.618;2023-04-06T02:50:10;1.20;99.90
15355;DHT22;7777;52.254;9.618;2023-04-06T02:52:36;1.10;99.70
15355;DHT22;7777;52.254;9.618;2023-04-06T02:55:01;1.10;99.50
15355;DHT22;7777;52.254;9.618;2023-04-06T02:57:27;1.20;99.40
15355;DHT22;7777;52.254;9.618;2023-04-06T02:59:53;1.20;99.30
15355;DHT22;7777;52.254;9.618;2023-04-06T03:02:18;1.20;99.50
15355;DHT22;7777;52.254;9.618;2023-04-06T03:04:44;1.20;99.60
15355;DHT22;7777;52.254;9.618;2023-04-06T03:07:10;1.20;99.10
15355;DHT22;7777;52.254;9.618;2023-04-06T03:09:39;1.20;99.10
15355;DHT22;7777;52.254;9.618;2023-04-06T03:12:05;1.20;98.90
15355;DHT22;7777;52.254;9.618;2023-04-06T03:14:31;1.20;99.10
15355;DHT22;7777;52.254;9.618;2023-04-06T03:16:56;1.20;99.10
15355;DHT22;7777;52.254;9.618;2023-04-06T03:19:22;1.30;98.90
15355;DHT22;7777;52.254;9.618;2023-04-06T03:21:48;1.30;98.80
15355;DHT22;7777;52.254;9.618;2023-04-06T03:24:13;1.30;98.70
15355;DHT22;7777;52.254;9.618;2023-04-06T03:26:39;1.30;98.40
15355;DHT22;7777;52.254;9.618;2023-04-06T03:29:05;1.30;98.30
15355;DHT22;7777;52.254;9.618;2023-04-06T03:31:31;1.40;97.90
15355;DHT22;7777;52.254;9.618;2023-04-06T03:33:56;1.40;98.10
15355;DHT22;7777;52.254;9.618;2023-04-06T03:36:22;1.40;97.90
15355;DHT22;7777;52.254;9.618;2023-04-06T03:38:48;1.40;97.90
15355;DHT22;7777;52.254;9.618;2023-04-06T03:41:13;1.40;98.00
15355;DHT22;7777;52.254;9.618;2023-04-06T03:43:39;1.50;97.60
15355;DHT22;7777;52.254;9.618;2023-04-06T03:46:05;1.50;97.60
15355;DHT22;7777;52.254;9.618;2023-04-06T03:48:30;1.50;97.40
15355;DHT22;7777;52.254;9.618;2023-04-06T03:50:56;1.60;97.70
15355;DHT22;7777;52.254;9.618;2023-04-06T03:53:22;1.60;97.40
15355;DHT22;7777;52.254;9.618;2023-04-06T03:55:47;1.60;97.50
15355;DHT22;7777;52.254;9.618;2023-04-06T03:58:13;1.70;97.30
15355;DHT22;7777;52.254;9.618;2023-04-06T04:00:39;1.70;97.50
15355;DHT22;7777;52.254;9.618;2023-04-06T04:03:05;1.70;97.30
15355;DHT22;7777;52.254;9.618;2023-04-06T04:05:30;1.80;97.40
15355;DHT22;7777;52.254;9.618;2023-04-06T04:07:56;1.80;97.30
15355;DHT22;7777;52.254;9.618;2023-04-06T04:10:22;1.80;97.50
15355;DHT22;7777;52.254;9.618;2023-04-06T04:12:47;1.80;97.50
15355;DHT22;7777;52.254;9.618;2023-04-06T04:15:13;1.80;97.50
15355;DHT22;7777;52.254;9.618;2023-04-06T04:17:41;1.90;97.60
15355;DHT22;7777;52.254;9.618;2023-04-06T04:20:07;1.90;97.50
15355;DHT22;7777;52.254;9.618;2023-04-06T04:22:33;1.90;97.40
15355;DHT22;7777;52.254;9.618;2023-04-06T04:24:59;2.00;97.40
15355;DHT22;7777;52.254;9.618;2023-04-06T04:27:24;2.00;97.50
15355;DHT22;7777;52.254;9.618;2023-04-06T04:29:50;2.00;97.50
15355;DHT22;7777;52.254;9.618;2023-04-06T04:32:16;2.00;97.50
15355;DHT22;7777;52.254;9.618;2023-04-06T04:34:41;2.00;97.50
15355;DHT22;7777;52.254;9.618;2023-04-06T04:37:07;2.00;97.60
15355;DHT22;7777;52.254;9.618;2023-04-06T04:39:33;2.10;97.50
15355;DHT22;7777;52.254;9.618;2023-04-06T04:41:59;2.10;97.40
15355;DHT22;7777;52.254;9.618;2023-04-06T04:44:24;2.10;97.30
15355;DHT22;7777;52.254;9.618;2023-04-06T04:46:51;2.10;97.30
15355;DHT22;7777;52.254;9.618;2023-04-06T04:49:17;2.10;97.20
15355;DHT22;7777;52.254;9.618;2023-04-06T04:51:43;2.20;97.40
15355;DHT22;7777;52.254;9.618;2023-04-06T04:54:09;2.10;97.30
15355;DHT22;7777;52.254;9.618;2023-04-06T04:56:34;2.20;97.40
15355;DHT22;7777;52.254;9.618;2023-04-06T04:59:00;2.20;97.20
15355;DHT22;7777;52.254;9.618;2023-04-06T05:01:26;2.20;97.20
15355;DHT22;7777;52.254;9.618;2023-04-06T05:03:51;2.20;97.10
15355;DHT22;7777;52.254;9.618;2023-04-06T05:06:17;2.20;97.20
15355;DHT22;7777;52.254;9.618;2023-04-06T05:08:44;2.20;96.90
15355;DHT22;7777;52.254;9.618;2023-04-06T05:11:10;2.20;96.90
15355;DHT22;7777;52.254;9.618;2023-04-06T05:13:36;2.30;96.80
15355;DHT22;7777;52.254;9.618;2023-04-06T05:16:01;2.30;97.00
15355;DHT22;7777;52.254;9.618;2023-04-06T05:18:27;2.30;96.80
15355;DHT22;7777;52.254;9.618;2023-04-06T05:20:53;2.30;96.70
15355;DHT22;7777;52.254;9.618;2023-04-06T05:23:19;2.30;96.90
15355;DHT22;7777;52.254;9.618;2023-04-06T05:25:44;2.30;96.90
15355;DHT22;7777;52.254;9.618;2023-04-06T05:28:10;2.30;97.00
15355;DHT22;7777;52.254;9.618;2023-04-06T05:30:39;2.30;97.00
15355;DHT22;7777;52.254;9.618;2023-04-06T05:33:05;2.30;97.00
15355;DHT22;7777;52.254;9.618;2023-04-06T05:35:31;2.40;97.00
15355;DHT22;7777;52.254;9.618;2023-04-06T05:37:57;2.40;97.00
15355;DHT22;7777;52.254;9.618;2023-04-06T05:40:22;2.40;96.80
15355;DHT22;7777;52.254;9.618;2023-04-06T05:42:48;2.40;96.80
15355;DHT22;7777;52.254;9.618;2023-04-06T05:45:15;2.50;96.80
15355;DHT22;7777;52.254;9.618;2023-04-06T05:47:44;2.50;96.80
15355;DHT22;7777;52.254;9.618;2023-04-06T05:50:11;2.60;96.80
15355;DHT22;7777;52.254;9.618;2023-04-06T05:52:37;2.60;96.70
15355;DHT22;7777;52.254;9.618;2023-04-06T05:55:03;2.70;96.70
15355;DHT22;7777;52.254;9.618;2023-04-06T05:57:30;2.70;96.80
15355;DHT22;7777;52.254;9.618;2023-04-06T05:59:55;2.70;96.60
15355;DHT22;7777;52.254;9.618;2023-04-06T06:02:21;2.80;96.70
15355;DHT22;7777;52.254;9.618;2023-04-06T06:04:47;2.80;96.70
15355;DHT22;7777;52.254;9.618;2023-04-06T06:07:15;2.90;96.70
15355;DHT22;7777;52.254;9.618;2023-04-06T06:09:40;2.90;96.60
15355;DHT22;7777;52.254;9.618;2023-04-06T06:12:06;3.00;96.60
15355;DHT22;7777;52.254;9.618;2023-04-06T06:14:32;3.00;96.70
15355;DHT22;7777;52.254;9.618;2023-04-06T06:16:58;3.10;96.70
15355;DHT22;7777;52.254;9.618;2023-04-06T06:19:24;3.10;96.70
15355;DHT22;7777;52.254;9.618;2023-04-06T06:21:49;3.20;96.70
15355;DHT22;7777;52.254;9.618;2023-04-06T06:24:15;3.20;96.70
15355;DHT22;7777;52.254;9.618;2023-04-06T06:26:41;3.20;96.60
15355;DHT22;7777;52.254;9.618;2023-04-06T06:29:07;3.30;96.70
15355;DHT22;7777;52.254;9.618;2023-04-06T06:31:33;3.40;96.70
15355;DHT22;7777;52.254;9.618;2023-04-06T06:33:58;3.40;96.70
15355;DHT22;7777;52.254;9.618;2023-04-06T06:36:25;3.50;96.80
15355;DHT22;7777;52.254;9.618;2023-04-06T06:38:51;3.60;96.80
15355;DHT22;7777;52.254;9.618;2023-04-06T06:41:17;3.60;96.80
15355;DHT22;7777;52.254;9.618;2023-04-06T06:43:43;3.80;96.90
15355;DHT22;7777;52.254;9.618;2023-04-06T06:46:09;3.70;96.80
15355;DHT22;7777;52.254;9.618;2023-04-06T06:48:34;3.70;96.80
15355;DHT22;7777;52.254;9.618;2023-04-06T06:51:00;3.80;96.80
15355;DHT22;7777;52.254;9.618;2023-04-06T06:53:26;3.90;96.80
15355;DHT22;7777;52.254;9.618;2023-04-06T06:55:52;3.90;96.90
15355;DHT22;7777;52.254;9.618;2023-04-06T06:58:18;4.00;96.90
15355;DHT22;7777;52.254;9.618;2023-04-06T07:00:47;4.10;96.80
15355;DHT22;7777;52.254;9.618;2023-04-06T07:03:12;4.10;96.50
15355;DHT22;7777;52.254;9.618;2023-04-06T07:05:38;4.20;96.70
15355;DHT22;7777;52.254;9.618;2023-04-06T07:08:04;4.30;96.40
15355;DHT22;7777;52.254;9.618;2023-04-06T07:10:30;4.40;96.20
15355;DHT22;7777;52.254;9.618;2023-04-06T07:12:56;4.50;96.20
15355;DHT22;7777;52.254;9.618;2023-04-06T07:15:22;4.60;96.10
15355;DHT22;7777;52.254;9.618;2023-04-06T07:17:47;4.70;96.20
15355;DHT22;7777;52.254;9.618;2023-04-06T07:20:13;4.70;96.30
15355;DHT22;7777;52.254;9.618;2023-04-06T07:22:41;4.90;96.10
15355;DHT22;7777;52.254;9.618;2023-04-06T07:25:08;5.00;96.10
15355;DHT22;7777;52.254;9.618;2023-04-06T07:27:34;5.10;96.10
15355;DHT22;7777;52.254;9.618;2023-04-06T07:30:00;5.20;96.30
15355;DHT22;7777;52.254;9.618;2023-04-06T07:32:26;5.30;96.20
15355;DHT22;7777;52.254;9.618;2023-04-06T07:34:51;5.40;96.40
15355;DHT22;7777;52.254;9.618;2023-04-06T07:37:17;5.50;96.00
15355;DHT22;7777;52.254;9.618;2023-04-06T07:39:43;5.60;96.20
15355;DHT22;7777;52.254;9.618;2023-04-06T07:42:09;5.70;96.40
15355;DHT22;7777;52.254;9.618;2023-04-06T07:44:35;5.80;96.20
15355;DHT22;7777;52.254;9.618;2023-04-06T07:47:01;5.90;96.20
15355;DHT22;7777;52.254;9.618;2023-04-06T07:49:26;6.00;96.10
15355;DHT22;7777;52.254;9.618;2023-04-06T07:51:52;6.10;96.10
15355;DHT22;7777;52.254;9.618;2023-04-06T07:54:18;6.20;96.40
15355;DHT22;7777;52.254;9.618;2023-04-06T07:56:44;6.30;96.50
15355;DHT22;7777;52.254;9.618;2023-04-06T07:59:09;6.40;96.70
15355;DHT22;7777;52.254;9.618;2023-04-06T08:01:36;6.50;96.20
15355;DHT22;7777;52.254;9.618;2023-04-06T08:04:02;6.50;96.20
15355;DHT22;7777;52.254;9.618;2023-04-06T08:06:28;6.60;96.40
15355;DHT22;7777;52.254;9.618;2023-04-06T08:08:54;6.70;96.50
15355;DHT22;7777;52.254;9.618;2023-04-06T08:11:20;6.80;96.40
15355;DHT22;7777;52.254;9.618;2023-04-06T08:13:46;6.90;95.60
15355;DHT22;7777;52.254;9.618;2023-04-06T08:16:11;7.00;95.60
15355;DHT22;7777;52.254;9.618;2023-04-06T08:18:37;7.10;95.90
15355;DHT22;7777;52.254;9.618;2023-04-06T08:21:03;7.10;95.40
15355;DHT22;7777;52.254;9.618;2023-04-06T08:23:28;7.20;95.80
15355;DHT22;7777;52.254;9.618;2023-04-06T08:25:54;7.30;95.00
15355;DHT22;7777;52.254;9.618;2023-04-06T08:28:21;7.40;95.50
15355;DHT22;7777;52.254;9.618;2023-04-06T08:30:47;7.40;94.90
15355;DHT22;7777;52.254;9.618;2023-04-06T08:33:13;7.50;95.40
15355;DHT22;7777;52.254;9.618;2023-04-06T08:35:40;7.60;95.50
15355;DHT22;7777;52.254;9.618;2023-04-06T08:38:06;7.70;95.20
15355;DHT22;7777;52.254;9.618;2023-04-06T08:40:39;7.80;94.70
15355;DHT22;7777;52.254;9.618;2023-04-06T08:43:10;7.90;94.70
15355;DHT22;7777;52.254;9.618;2023-04-06T08:45:41;8.00;95.00
15355;DHT22;7777;52.254;9.618;2023-04-06T08:48:08;8.10;94.90
15355;DHT22;7777;52.254;9.618;2023-04-06T08:50:34;8.20;95.50
15355;DHT22;7777;52.254;9.618;2023-04-06T08:53:01;8.20;94.60
15355;DHT22;7777;52.254;9.618;2023-04-06T08:55:27;8.30;94.70
15355;DHT22;7777;52.254;9.618;2023-04-06T08:57:53;8.40;94.80
15355;DHT22;7777;52.254;9.618;2023-04-06T09:00:20;8.50;94.20
15355;DHT22;7777;52.254;9.618;2023-04-06T09:02:47;8.50;94.30
15355;DHT22;7777;52.254;9.618;2023-04-06T09:05:15;8.60;94.50
15355;DHT22;7777;52.254;9.618;2023-04-06T09:07:41;8.70;93.80
15355;DHT22;7777;52.254;9.618;2023-04-06T09:10:07;8.80;94.20
15355;DHT22;7777;52.254;9.618;2023-04-06T09:12:34;8.90;95.20
15355;DHT22;7777;52.254;9.618;2023-04-06T09:15:01;9.00;95.30
15355;DHT22;7777;52.254;9.618;2023-04-06T09:17:32;9.10;95.30
15355;DHT22;7777;52.254;9.618;2023-04-06T09:20:02;9.20;94.60
15355;DHT22;7777;52.254;9.618;2023-04-06T09:22:39;9.30;95.00
15355;DHT22;7777;52.254;9.618;2023-04-06T09:25:06;9.40;94.60
15355;DHT22;7777;52.254;9.618;2023-04-06T09:27:37;9.50;94.70
15355;DHT22;7777;52.254;9.618;2023-04-06T09:30:11;9.60;95.00
15355;DHT22;7777;52.254;9.618;2023-04-06T09:32:50;9.70;94.60
15355;DHT22;7777;52.254;9.618;2023-04-06T09:35:17;9.80;94.20
15355;DHT22;7777;52.254;9.618;2023-04-06T09:37:46;9.90;93.70
15355;DHT22;7777;52.254;9.618;2023-04-06T09:40:13;10.00;93.50
15355;DHT22;7777;52.254;9.618;2023-04-06T09:42:45;10.20;93.40
15355;DHT22;7777;52.254;9.618;2023-04-06T09:45:12;10.30;93.40
15355;DHT22;7777;52.254;9.618;2023-04-06T09:47:43;10.40;92.90
15355;DHT22;7777;52.254;9.618;2023-04-06T09:50:11;10.50;93.30
15355;DHT22;7777;52.254;9.618;2023-04-06T09:52:42;10.60;92.70
15355;DHT22;7777;52.254;9.618;2023-04-06T09:55:20;10.70;92.80
15355;DHT22;7777;52.254;9.618;2023-04-06T09:58:02;10.90;92.80
15355;DHT22;7777;52.254;9.618;2023-04-06T10:00:32;11.10;92.80
15355;DHT22;7777;52.254;9.618;2023-04-06T10:06:10;11.30;92.10
15355;DHT22;7777;52.254;9.618;2023-04-06T10:08:38;11.50;92.50
15355;DHT22;7777;52.254;9.618;2023-04-06T10:11:11;11.70;93.30
15355;DHT22;7777;52.254;9.618;2023-04-06T10:13:37;11.80;92.10
15355;DHT22;7777;52.254;9.618;2023-04-06T10:16:03;12.00;91.90
15355;DHT22;7777;52.254;9.618;2023-04-06T10:18:30;12.10;92.00
15355;DHT22;7777;52.254;9.618;2023-04-06T10:21:14;12.30;92.30
15355;DHT22;7777;52.254;9.618;2023-04-06T10:23:45;12.40;92.70
15355;DHT22;7777;52.254;9.618;2023-04-06T10:26:15;12.60;90.30
15355;DHT22;7777;52.254;9.618;2023-04-06T10:28:43;12.60;88.20
15355;DHT22;7777;52.254;9.618;2023-04-06T10:31:10;12.60;86.50
15355;DHT22;7777;52.254;9.618;2023-04-06T10:33:36;12.80;87.70
15355;DHT22;7777;52.254;9.618;2023-04-06T10:36:15;13.10;89.00
15355;DHT22;7777;52.254;9.618;2023-04-06T10:38:53;13.10;87.50
15355;DHT22;7777;52.254;9.618;2023-04-06T10:41:19;13.20;85.70
15355;DHT22;7777;52.254;9.618;2023-04-06T10:43:56;13.30;84.10
15355;DHT22;7777;52.254;9.618;2023-04-06T10:46:26;13.30;82.30
15355;DHT22;7777;52.254;9.618;2023-04-06T10:48:53;13.30;81.10
15355;DHT22;7777;52.254;9.618;2023-04-06T10:51:24;13.40;81.90
15355;DHT22;7777;52.254;9.618;2023-04-06T10:53:53;13.60;86.20
15355;DHT22;7777;52.254;9.618;2023-04-06T10:56:22;13.60;80.30
15355;DHT22;7777;52.254;9.618;2023-04-06T10:58:52;13.60;79.60
15355;DHT22;7777;52.254;9.618;2023-04-06T11:01:22;13.80;82.20
15355;DHT22;7777;52.254;9.618;2023-04-06T11:03:52;13.90;81.80
15355;DHT22;7777;52.254;9.618;2023-04-06T11:06:26;14.00;79.60
15355;DHT22;7777;52.254;9.618;2023-04-06T11:08:54;14.00;80.40
15355;DHT22;7777;52.254;9.618;2023-04-06T11:11:22;14.10;82.10
15355;DHT22;7777;52.254;9.618;2023-04-06T11:13:52;14.20;84.40
15355;DHT22;7777;52.254;9.618;2023-04-06T11:16:27;14.30;77.30
15355;DHT22;7777;52.254;9.618;2023-04-06T11:18:56;14.30;80.30
15355;DHT22;7777;52.254;9.618;2023-04-06T11:21:39;14.40;79.60
15355;DHT22;7777;52.254;9.618;2023-04-06T11:24:26;14.50;80.10
15355;DHT22;7777;52.254;9.618;2023-04-06T11:26:54;14.60;80.40
15355;DHT22;7777;52.254;9.618;2023-04-06T11:29:22;14.70;81.30
15355;DHT22;7777;52.254;9.618;2023-04-06T11:31:50;14.80;77.80
15355;DHT22;7777;52.254;9.618;2023-04-06T11:34:17;14.90;79.00
15355;DHT22;7777;52.254;9.618;2023-04-06T11:36:45;15.00;77.30
15355;DHT22;7777;52.254;9.618;2023-04-06T11:39:13;15.10;76.50
15355;DHT22;7777;52.254;9.618;2023-04-06T11:41:39;15.00;74.20
15355;DHT22;7777;52.254;9.618;2023-04-06T11:44:06;14.90;73.60
15355;DHT22;7777;52.254;9.618;2023-04-06T11:46:32;14.90;76.50
15355;DHT22;7777;52.254;9.618;2023-04-06T11:48:59;15.00;75.70
15355;DHT22;7777;52.254;9.618;2023-04-06T11:51:26;15.20;76.50
15355;DHT22;7777;52.254;9.618;2023-04-06T11:53:52;15.20;73.40
15355;DHT22;7777;52.254;9.618;2023-04-06T11:56:25;15.20;74.20
15355;DHT22;7777;52.254;9.618;2023-04-06T11:58:56;15.20;71.80
15355;DHT22;7777;52.254;9.618;2023-04-06T12:01:23;15.30;75.70
15355;DHT22;7777;52.254;9.618;2023-04-06T12:03:50;15.40;77.40
15355;DHT22;7777;52.254;9.618;2023-04-06T12:06:17;15.50;73.30
15355;DHT22;7777;52.254;9.618;2023-04-06T12:08:43;15.60;70.60
15355;DHT22;7777;52.254;9.618;2023-04-06T12:11:10;15.60;72.60
15355;DHT22;7777;52.254;9.618;2023-04-06T12:13:36;15.60;72.60
15355;DHT22;7777;52.254;9.618;2023-04-06T12:16:02;15.70;70.80
15355;DHT22;7777;52.254;9.618;2023-04-06T12:18:29;15.80;74.80
15355;DHT22;7777;52.254;9.618;2023-04-06T12:20:55;15.80;72.40
15355;DHT22;7777;52.254;9.618;2023-04-06T12:23:21;15.80;71.40
15355;DHT22;7777;52.254;9.618;2023-04-06T12:25:47;15.80;71.10
15355;DHT22;7777;52.254;9.618;2023-04-06T12:28:12;15.70;70.30
15355;DHT22;7777;52.254;9.618;2023-04-06T12:30:38;15.80;72.40
15355;DHT22;7777;52.254;9.618;2023-04-06T12:33:06;15.70;70.80
15355;DHT22;7777;52.254;9.618;2023-04-06T12:35:36;15.90;72.00
15355;DHT22;7777;52.254;9.618;2023-04-06T12:38:02;15.90;72.20
15355;DHT22;7777;52.254;9.618;2023-04-06T12:40:28;15.90;69.10
15355;DHT22;7777;52.254;9.618;2023-04-06T12:42:54;15.80;70.20
15355;DHT22;7777;52.254;9.618;2023-04-06T12:45:20;15.80;68.90
15355;DHT22;7777;52.254;9.618;2023-04-06T12:47:45;15.80;69.20
15355;DHT22;7777;52.254;9.618;2023-04-06T12:50:11;15.80;69.00
15355;DHT22;7777;52.254;9.618;2023-04-06T12:52:37;15.70;68.70
15355;DHT22;7777;52.254;9.618;2023-04-06T12:55:03;15.80;70.80
15355;DHT22;7777;52.254;9.618;2023-04-06T12:57:30;15.80;68.80
15355;DHT22;7777;52.254;9.618;2023-04-06T12:59:56;15.80;68.00
15355;DHT22;7777;52.254;9.618;2023-04-06T13:02:22;15.70;68.60
15355;DHT22;7777;52.254;9.618;2023-04-06T13:04:49;15.80;66.70
15355;DHT22;7777;52.254;9.618;2023-04-06T13:07:15;15.80;67.80
15355;DHT22;7777;52.254;9.618;2023-04-06T13:09:41;15.70;67.80
15355;DHT22;7777;52.254;9.618;2023-04-06T13:12:07;15.70;66.50
15355;DHT22;7777;52.254;9.618;2023-04-06T13:14:33;15.80;67.20
15355;DHT22;7777;52.254;9.618;2023-04-06T13:16:59;15.80;65.50
15355;DHT22;7777;52.254;9.618;2023-04-06T13:19:25;15.90;66.80
15355;DHT22;7777;52.254;9.618;2023-04-06T13:21:51;15.80;65.00
15355;DHT22;7777;52.254;9.618;2023-04-06T13:24:17;15.90;66.20
15355;DHT22;7777;52.254;9.618;2023-04-06T13:26:44;16.00;65.90
15355;DHT22;7777;52.254;9.618;2023-04-06T13:29:10;16.00;65.10
15355;DHT22;7777;52.254;9.618;2023-04-06T13:31:36;16.00;63.70
15355;DHT22;7777;52.254;9.618;2023-04-06T13:34:02;15.90;64.60
15355;DHT22;7777;52.254;9.618;2023-04-06T13:36:27;16.00;64.30
15355;DHT22;7777;52.254;9.618;2023-04-06T13:38:53;15.90;63.70
15355;DHT22;7777;52.254;9.618;2023-04-06T13:41:21;15.90;64.60
15355;DHT22;7777;52.254;9.618;2023-04-06T13:43:48;15.90;63.50
15355;DHT22;7777;52.254;9.618;2023-04-06T13:46:14;15.80;63.30
15355;DHT22;7777;52.254;9.618;2023-04-06T13:48:40;15.80;62.90
15355;DHT22;7777;52.254;9.618;2023-04-06T13:51:13;15.80;63.80
15355;DHT22;7777;52.254;9.618;2023-04-06T13:53:39;15.90;63.40
15355;DHT22;7777;52.254;9.618;2023-04-06T13:56:06;15.90;63.90
15355;DHT22;7777;52.254;9.618;2023-04-06T13:58:33;15.90;63.30
15355;DHT22;7777;52.254;9.618;2023-04-06T14:01:06;15.90;64.20
15355;DHT22;7777;52.254;9.618;2023-04-06T14:03:32;15.90;62.80
15355;DHT22;7777;52.254;9.618;2023-04-06T14:05:58;15.80;61.70
15355;DHT22;7777;52.254;9.618;2023-04-06T14:08:24;15.70;61.80
15355;DHT22;7777;52.254;9.618;2023-04-06T14:10:50;15.70;61.50
15355;DHT22;7777;52.254;9.618;2023-04-06T14:13:16;15.70;62.80
15355;DHT22;7777;52.254;9.618;2023-04-06T14:15:42;15.70;62.00
15355;DHT22;7777;52.254;9.618;2023-04-06T14:18:08;15.70;61.90
15355;DHT22;7777;52.254;9.618;2023-04-06T14:20:34;15.70;62.00
15355;DHT22;7777;52.254;9.618;2023-04-06T14:23:01;15.60;60.30
15355;DHT22;7777;52.254;9.618;2023-04-06T14:25:27;15.60;60.70
15355;DHT22;7777;52.254;9.618;2023-04-06T14:27:53;15.50;61.40
15355;DHT22;7777;52.254;9.618;2023-04-06T14:30:19;15.60;63.10
15355;DHT22;7777;52.254;9.618;2023-04-06T14:32:45;15.60;63.10
15355;DHT22;7777;52.254;9.618;2023-04-06T14:35:11;15.60;62.40
15355;DHT22;7777;52.254;9.618;2023-04-06T14:37:36;15.60;62.40
15355;DHT22;7777;52.254;9.618;2023-04-06T14:40:03;15.50;62.60
15355;DHT22;7777;52.254;9.618;2023-04-06T14:42:29;15.50;63.00
15355;DHT22;7777;52.254;9.618;2023-04-06T14:44:55;15.50;61.40
15355;DHT22;7777;52.254;9.618;2023-04-06T14:47:20;15.50;63.00
15355;DHT22;7777;52.254;9.618;2023-04-06T14:49:51;15.50;61.20
15355;DHT22;7777;52.254;9.618;2023-04-06T14:52:17;15.40;63.50
15355;DHT22;7777;52.254;9.618;2023-04-06T14:54:43;15.40;61.30
15355;DHT22;7777;52.254;9.618;2023-04-06T14:57:09;15.40;60.80
15355;DHT22;7777;52.254;9.618;2023-04-06T14:59:34;15.40;64.90
15355;DHT22;7777;52.254;9.618;2023-04-06T15:02:01;15.30;58.30
15355;DHT22;7777;52.254;9.618;2023-04-06T15:04:28;15.40;62.50
15355;DHT22;7777;52.254;9.618;2023-04-06T15:06:55;15.40;60.80
15355;DHT22;7777;52.254;9.618;2023-04-06T15:09:21;15.40;62.50
15355;DHT22;7777;52.254;9.618;2023-04-06T15:11:47;15.40;62.80
15355;DHT22;7777;52.254;9.618;2023-04-06T15:14:12;15.40;61.80
15355;DHT22;7777;52.254;9.618;2023-04-06T15:16:38;15.40;63.40
15355;DHT22;7777;52.254;9.618;2023-04-06T15:19:03;15.40;60.20
15355;DHT22;7777;52.254;9.618;2023-04-06T15:21:29;15.30;59.10
15355;DHT22;7777;52.254;9.618;2023-04-06T15:23:56;15.30;61.60
15355;DHT22;7777;52.254;9.618;2023-04-06T15:26:22;15.30;62.70
15355;DHT22;7777;52.254;9.618;2023-04-06T15:28:48;15.20;62.10
15355;DHT22;7777;52.254;9.618;2023-04-06T15:31:17;15.20;59.70
15355;DHT22;7777;52.254;9.618;2023-04-06T15:33:45;15.10;57.40
15355;DHT22;7777;52.254;9.618;2023-04-06T15:36:31;15.10;64.30
15355;DHT22;7777;52.254;9.618;2023-04-06T15:38:57;15.10;62.70
15355;DHT22;7777;52.254;9.618;2023-04-06T15:41:23;15.10;64.80
15355;DHT22;7777;52.254;9.618;2023-04-06T15:43:51;15.10;65.80
15355;DHT22;7777;52.254;9.618;2023-04-06T15:46:18;15.00;60.60
15355;DHT22;7777;52.254;9.618;2023-04-06T15:48:44;15.00;61.30
15355;DHT22;7777;52.254;9.618;2023-04-06T15:51:10;14.90;60.30
15355;DHT22;7777;52.254;9.618;2023-04-06T15:53:35;14.90;62.30
15355;DHT22;7777;52.254;9.618;2023-04-06T15:56:02;14.80;62.70